Time;durP1;ratioP1;P1;durP2;ratioP2;P2;SDS_P1;SDS_P2;PMS_P1;PMS_P2;Temp;Humidity;BMP_temperature;BMP_pressure;BME280_temperature;BME280_humidity;BME280_pressure;Samples;Min_cycle;Max_cycle;Signal;HPM_P1;HPM_P2
2022/05/07 00:02:10;;;;;;;2.83;2.37;;;14.20;99.90;;;;;;5055047;28;20502;-78
2022/05/07 00:04:37;;;;;;;6.83;3.70;;;14.10;99.90;;;;;;5055266;28;20566;-79
2022/05/07 00:07:04;;;;;;;4.47;3.50;;;14.10;99.90;;;;;;5055358;28;20174;-80
2022/05/07 00:09:30;;;;;;;4.87;2.30;;;14.00;99.90;;;;;;5055163;28;20444;-79
2022/05/07 00:11:56;;;;;;;4.17;2.93;;;13.90;99.90;;;;;;5055156;28;20419;-80
2022/05/07 00:14:21;;;;;;;4.67;2.10;;;13.80;99.90;;;;;;5055113;28;20428;-80
2022/05/07 00:19:33;;;;;;;4.43;2.57;;;13.80;99.90;;;;;;5023884;28;20557;-81
2022/05/07 00:21:58;;;;;;;4.10;2.60;;;14.00;99.90;;;;;;5054931;28;20424;-80
2022/05/07 00:24:24;;;;;;;5.10;2.03;;;13.90;99.90;;;;;;5054879;28;20213;-80
2022/05/07 00:26:50;;;;;;;3.30;1.90;;;13.90;99.90;;;;;;5054806;28;20170;-79
2022/05/07 00:29:16;;;;;;;3.37;2.30;;;13.80;99.90;;;;;;5054798;28;20178;-80
2022/05/07 00:31:41;;;;;;;3.00;2.00;;;13.80;99.90;;;;;;5053174;28;20834;-79
2022/05/07 00:34:07;;;;;;;3.83;2.40;;;13.80;99.90;;;;;;5054754;28;20181;-80
2022/05/07 00:36:33;;;;;;;3.97;3.17;;;13.80;99.90;;;;;;5054713;28;20534;-79
2022/05/07 00:38:58;;;;;;;4.27;2.80;;;13.90;99.90;;;;;;5054560;28;20428;-79
2022/05/07 00:41:24;;;;;;;7.57;3.63;;;13.80;99.90;;;;;;5054629;28;20188;-79
2022/05/07 00:43:49;;;;;;;3.30;2.80;;;13.60;99.90;;;;;;5054391;28;20749;-79
2022/05/07 00:46:16;;;;;;;5.70;2.63;;;13.50;99.90;;;;;;5053956;28;20229;-78
2022/05/07 00:48:43;;;;;;;4.13;2.60;;;13.50;99.90;;;;;;5054496;28;20181;-79
2022/05/07 00:53:53;;;;;;;4.03;2.43;;;13.60;99.90;;;;;;5054456;28;20407;-79
2022/05/07 00:56:19;;;;;;;4.60;3.17;;;13.50;99.90;;;;;;5054362;28;20415;-79
2022/05/07 00:58:44;;;;;;;6.07;3.57;;;13.50;99.90;;;;;;5054273;28;20180;-79
2022/05/07 01:01:10;;;;;;;5.10;3.20;;;13.40;99.90;;;;;;5053895;28;20172;-79
2022/05/07 01:03:36;;;;;;;5.73;2.93;;;13.50;99.90;;;;;;5054090;28;20200;-79
2022/05/07 01:06:02;;;;;;;4.30;2.67;;;13.50;99.90;;;;;;5054103;28;20176;-78
2022/05/07 01:08:33;;;;;;;4.60;2.87;;;13.50;99.90;;;;;;5053996;28;20415;-78
2022/05/07 01:11:00;;;;;;;3.20;2.80;;;13.50;99.90;;;;;;5054040;28;20177;-79
2022/05/07 01:13:26;;;;;;;3.90;2.77;;;13.60;99.90;;;;;;5036350;28;20405;-79
2022/05/07 01:15:56;;;;;;;4.07;2.90;;;13.40;99.90;;;;;;5053621;28;20462;-79
2022/05/07 01:18:22;;;;;;;4.53;3.70;;;13.40;99.90;;;;;;5053775;28;20423;-79
2022/05/07 01:20:47;;;;;;;5.30;2.67;;;13.40;99.90;;;;;;5053838;28;20415;-79
2022/05/07 01:23:13;;;;;;;3.87;3.10;;;13.30;99.90;;;;;;5053693;28;20273;-79
2022/05/07 01:25:39;;;;;;;5.30;3.93;;;13.20;99.90;;;;;;5053724;28;20206;-79
2022/05/07 01:28:04;;;;;;;4.87;3.57;;;13.20;99.90;;;;;;5053739;28;20162;-79
2022/05/07 01:30:30;;;;;;;5.00;3.20;;;13.00;99.90;;;;;;5053281;28;20181;-78
2022/05/07 01:32:56;;;;;;;7.27;3.20;;;13.00;99.90;;;;;;5053601;28;20641;-79
2022/05/07 01:35:24;;;;;;;8.13;4.10;;;12.90;99.90;;;;;;5053515;28;20311;-79
2022/05/07 01:37:50;;;;;;;6.30;2.93;;;12.80;99.90;;;;;;5053431;28;20232;-79
2022/05/07 01:40:15;;;;;;;4.60;3.30;;;12.80;99.90;;;;;;5053500;28;20846;-78
2022/05/07 01:42:41;;;;;;;7.13;3.70;;;12.80;99.90;;;;;;5052918;28;20261;-79
2022/05/07 01:45:09;;;;;;;7.80;3.60;;;12.70;99.90;;;;;;5053126;28;20233;-79
2022/05/07 01:50:22;;;;;;;6.80;3.90;;;12.50;99.90;;;;;;5053648;28;20437;-80
2022/05/07 01:52:48;;;;;;;5.53;3.30;;;12.40;99.90;;;;;;5053107;28;20432;-79
2022/05/07 01:55:14;;;;;;;5.07;3.00;;;12.30;99.90;;;;;;5053198;28;20178;-79
2022/05/07 01:57:39;;;;;;;5.97;3.30;;;12.20;99.90;;;;;;5052371;28;20184;-80
2022/05/07 02:00:05;;;;;;;3.73;3.23;;;12.10;99.90;;;;;;5053153;28;20514;-79
2022/05/07 02:02:31;;;;;;;5.93;3.63;;;12.10;99.90;;;;;;5051581;28;20187;-79
2022/05/07 02:05:02;;;;;;;4.23;3.60;;;12.10;99.90;;;;;;5052998;28;20475;-80
2022/05/07 02:07:27;;;;;;;5.50;3.90;;;12.10;99.90;;;;;;5053033;28;20180;-80
2022/05/07 02:09:53;;;;;;;5.00;3.90;;;12.10;99.90;;;;;;5053341;28;20410;-79
2022/05/07 02:12:18;;;;;;;5.20;3.43;;;12.00;99.90;;;;;;5052977;28;20241;-79
2022/05/07 02:14:47;;;;;;;4.47;3.47;;;12.00;99.90;;;;;;5052827;28;20635;-80
2022/05/07 02:17:12;;;;;;;6.13;3.67;;;11.90;99.90;;;;;;5052578;28;20169;-79
2022/05/07 02:19:38;;;;;;;7.03;4.10;;;11.80;99.90;;;;;;5052832;28;20776;-80
2022/05/07 02:22:03;;;;;;;4.30;3.10;;;11.80;99.90;;;;;;5053087;28;20180;-78
2022/05/07 02:24:29;;;;;;;5.90;2.70;;;11.70;99.90;;;;;;5034867;28;20210;-79
2022/05/07 02:26:59;;;;;;;5.20;3.40;;;11.70;99.90;;;;;;5052601;28;20183;-78
2022/05/07 02:29:24;;;;;;;5.60;3.37;;;11.60;99.90;;;;;;5052787;28;20191;-79
2022/05/07 02:32:05;;;;;;;4.43;4.03;;;11.60;99.90;;;;;;5034195;28;20927;-78
2022/05/07 02:34:35;;;;;;;6.30;4.10;;;11.60;99.90;;;;;;5052820;28;20179;-78
2022/05/07 02:37:02;;;;;;;4.43;2.90;;;11.70;99.90;;;;;;5052670;28;20405;-79
2022/05/07 02:39:28;;;;;;;5.47;2.97;;;11.70;99.90;;;;;;5052548;28;20421;-78
2022/05/07 02:44:41;;;;;;;5.60;3.60;;;11.60;99.90;;;;;;5051278;28;20330;-78
2022/05/07 02:47:06;;;;;;;5.10;3.57;;;11.50;99.90;;;;;;5052350;28;20504;-78
2022/05/07 02:49:32;;;;;;;4.20;3.80;;;11.60;99.90;;;;;;5052698;28;20491;-78
2022/05/07 02:51:58;;;;;;;5.33;3.90;;;11.70;99.90;;;;;;5034778;28;20193;-78
2022/05/07 02:54:24;;;;;;;4.40;3.10;;;11.70;99.90;;;;;;5052801;28;20400;-78
2022/05/07 02:56:49;;;;;;;5.20;3.10;;;11.80;99.90;;;;;;5056805;28;20182;-78
2022/05/07 02:59:15;;;;;;;5.90;3.57;;;11.90;99.90;;;;;;5056561;28;20906;-78
2022/05/07 03:01:41;;;;;;;5.03;3.00;;;11.80;99.90;;;;;;5056313;28;20198;-78
2022/05/07 03:04:07;;;;;;;5.23;3.43;;;11.80;99.90;;;;;;5038718;28;20609;-77
2022/05/07 03:06:33;;;;;;;4.90;3.37;;;11.60;99.90;;;;;;5056578;28;20515;-78
2022/05/07 03:08:58;;;;;;;4.33;2.97;;;11.50;99.90;;;;;;5056641;28;20440;-79
2022/05/07 03:11:24;;;;;;;3.80;2.93;;;11.40;99.90;;;;;;5056520;28;20178;-79
2022/05/07 03:13:50;;;;;;;6.23;4.43;;;11.30;99.90;;;;;;5038704;28;20162;-78
2022/05/07 03:16:15;;;;;;;7.37;3.80;;;11.20;99.90;;;;;;5056061;28;20416;-78
2022/05/07 03:18:41;;;;;;;5.53;3.90;;;11.20;99.90;;;;;;5056279;28;20253;-78
2022/05/07 03:21:06;;;;;;;3.23;2.50;;;11.20;99.90;;;;;;5056354;28;20642;-78
2022/05/07 03:23:32;;;;;;;4.90;3.47;;;11.20;99.90;;;;;;5056213;28;20174;-78
2022/05/07 03:25:58;;;;;;;6.47;3.53;;;11.20;99.90;;;;;;5056269;28;20180;-79
2022/05/07 03:28:24;;;;;;;5.50;3.90;;;11.20;99.90;;;;;;5056238;28;20167;-77
2022/05/07 03:30:49;;;;;;;4.63;4.00;;;11.30;99.90;;;;;;5055707;28;20414;-78
2022/05/07 03:33:15;;;;;;;4.27;3.23;;;11.30;99.90;;;;;;5056116;28;20167;-78
2022/05/07 03:35:43;;;;;;;3.53;2.80;;;11.30;99.90;;;;;;5056068;28;20695;-78
2022/05/07 03:38:09;;;;;;;5.30;3.97;;;11.30;99.90;;;;;;5056077;28;20648;-77
2022/05/07 03:40:34;;;;;;;5.90;4.03;;;11.40;99.90;;;;;;5038106;28;20422;-78
2022/05/07 03:43:01;;;;;;;5.27;4.23;;;11.40;99.90;;;;;;5038084;28;20177;-77
2022/05/07 03:45:27;;;;;;;5.60;3.53;;;11.30;99.90;;;;;;5055287;28;20708;-78
2022/05/07 03:47:53;;;;;;;7.40;4.10;;;11.30;99.90;;;;;;5055805;28;20423;-78
2022/05/07 03:50:18;;;;;;;5.90;3.60;;;11.40;99.90;;;;;;5055714;28;20427;-79
2022/05/07 03:55:28;;;;;;;5.03;3.33;;;11.50;99.90;;;;;;5056028;28;20225;-78
2022/05/07 03:57:54;;;;;;;8.80;4.80;;;11.70;99.90;;;;;;5055667;28;20772;-78
2022/05/07 04:00:20;;;;;;;9.23;5.17;;;11.80;99.90;;;;;;5055306;28;20218;-78
2022/05/07 04:02:45;;;;;;;8.27;5.20;;;11.80;99.90;;;;;;5055631;28;20822;-78
2022/05/07 04:05:11;;;;;;;12.60;5.50;;;11.80;99.90;;;;;;5055355;28;20209;-78
2022/05/07 04:07:37;;;;;;;6.30;4.30;;;11.70;99.90;;;;;;5055328;28;20178;-80
2022/05/07 04:10:03;;;;;;;7.20;5.10;;;11.50;99.90;;;;;;5055497;28;20225;-77
2022/05/07 04:12:29;;;;;;;8.33;4.77;;;11.40;99.90;;;;;;5055343;28;20411;-77
2022/05/07 04:14:59;;;;;;;7.77;4.77;;;11.50;99.90;;;;;;5055335;28;20921;-77
2022/05/07 04:17:24;;;;;;;7.67;5.00;;;11.50;99.90;;;;;;5054898;28;20207;-78
2022/05/07 04:19:50;;;;;;;7.57;4.63;;;11.50;99.90;;;;;;5055305;28;20455;-78
2022/05/07 04:22:15;;;;;;;6.93;5.30;;;11.50;99.90;;;;;;5055105;28;20711;-78
2022/05/07 04:24:44;;;;;;;6.47;4.60;;;11.50;99.90;;;;;;5054887;28;20213;-77
2022/05/07 04:27:10;;;;;;;9.00;4.47;;;11.50;99.90;;;;;;5055166;28;20655;-78
2022/05/07 04:29:35;;;;;;;8.30;5.87;;;11.60;99.90;;;;;;5037248;28;20507;-78
2022/05/07 04:32:01;;;;;;;8.13;5.43;;;11.80;99.90;;;;;;5036940;28;20657;-78
2022/05/07 04:34:28;;;;;;;7.33;5.53;;;11.80;99.90;;;;;;5037162;28;20333;-78
2022/05/07 04:36:54;;;;;;;7.07;4.70;;;11.90;99.90;;;;;;5054887;28;20432;-78
2022/05/07 04:39:20;;;;;;;7.13;4.93;;;11.90;99.90;;;;;;5036863;28;20789;-78
2022/05/07 04:41:45;;;;;;;6.80;4.73;;;11.90;99.90;;;;;;5054794;28;20711;-79
2022/05/07 04:44:12;;;;;;;7.60;5.17;;;11.90;99.90;;;;;;5036750;28;20557;-80
2022/05/07 04:46:39;;;;;;;6.40;4.30;;;11.90;99.90;;;;;;5054389;28;20184;-78
2022/05/07 04:49:05;;;;;;;4.67;4.27;;;11.80;99.90;;;;;;5054765;28;20413;-78
2022/05/07 04:51:31;;;;;;;6.87;5.80;;;12.00;99.90;;;;;;5055280;28;20502;-77
2022/05/07 04:53:57;;;;;;;7.90;5.43;;;12.00;99.90;;;;;;5055521;28;20824;-78
2022/05/07 04:56:25;;;;;;;7.97;4.80;;;12.20;99.90;;;;;;5036874;28;20633;-78
2022/05/07 04:58:51;;;;;;;7.13;5.07;;;12.20;99.90;;;;;;5054538;28;20178;-78
2022/05/07 05:01:17;;;;;;;6.90;4.83;;;12.20;99.90;;;;;;5054196;28;20414;-77
2022/05/07 05:03:43;;;;;;;7.87;4.50;;;12.20;99.90;;;;;;5054329;28;20471;-78
2022/05/07 05:06:08;;;;;;;7.97;5.80;;;12.20;99.90;;;;;;5054411;28;20241;-78
2022/05/07 05:08:34;;;;;;;9.80;6.20;;;12.20;99.90;;;;;;5054430;28;20176;-77
2022/05/07 05:10:59;;;;;;;6.90;5.10;;;12.20;99.90;;;;;;5054278;28;20168;-78
2022/05/07 05:13:25;;;;;;;10.73;5.60;;;12.30;99.90;;;;;;5036564;28;20175;-78
2022/05/07 05:15:50;;;;;;;12.37;6.57;;;12.40;99.90;;;;;;5053950;28;20173;-78
2022/05/07 05:18:16;;;;;;;9.67;6.50;;;12.50;99.90;;;;;;5053457;28;20173;-78
2022/05/07 05:20:41;;;;;;;7.83;4.90;;;12.70;99.90;;;;;;5036231;28;20180;-80
2022/05/07 05:23:07;;;;;;;8.73;5.97;;;12.80;99.90;;;;;;5053955;28;20167;-80
2022/05/07 05:25:33;;;;;;;9.60;6.77;;;13.10;99.90;;;;;;5053996;28;20718;-78
2022/05/07 05:27:58;;;;;;;13.47;6.10;;;13.30;99.90;;;;;;5053995;28;20174;-78
2022/05/07 05:30:24;;;;;;;8.63;6.80;;;13.70;99.90;;;;;;5053483;28;20165;-78
2022/05/07 05:32:50;;;;;;;7.57;5.50;;;14.20;70.50;;;;;;5053873;28;20226;-78
2022/05/07 05:35:18;;;;;;;10.60;6.57;;;14.30;22.10;;;;;;5053755;28;20177;-78
2022/05/07 05:37:43;;;;;;;9.80;7.80;;;14.40;7.40;;;;;;5053731;28;20166;-79
2022/05/07 05:40:09;;;;;;;8.47;7.23;;;15.10;1.00;;;;;;5053790;28;20507;-78
2022/05/07 05:42:35;;;;;;;8.37;5.77;;;15.50;99.90;;;;;;5035732;28;20170;-78
2022/05/07 05:45:00;;;;;;;7.30;5.70;;;15.10;99.90;;;;;;5053045;28;20233;-79
2022/05/07 05:47:26;;;;;;;9.23;7.87;;;14.80;1.00;;;;;;5053598;28;20200;-78
2022/05/07 05:49:52;;;;;;;7.77;6.20;;;14.70;1.00;;;;;;5053490;28;20182;-79
2022/05/07 05:52:18;;;;;;;10.17;6.80;;;14.60;12.10;;;;;;5035576;28;20170;-78
2022/05/07 05:54:43;;;;;;;9.60;7.10;;;14.50;18.80;;;;;;5035574;28;20438;-79
2022/05/07 05:57:09;;;;;;;13.30;9.00;;;14.50;35.90;;;;;;5053392;28;20175;-80
2022/05/07 05:59:34;;;;;;;8.50;7.50;;;14.40;16.30;;;;;;5035547;28;20178;-79
2022/05/07 06:02:00;;;;;;;9.03;8.07;;;14.50;13.40;;;;;;5052935;28;20171;-79
2022/05/07 06:04:27;;;;;;;15.40;9.53;;;;;;;;;;5035332;28;20254;-79
2022/05/07 06:06:52;;;;;;;12.20;9.20;;;14.50;27.40;;;;;;5035312;28;20206;-78
2022/05/07 06:09:18;;;;;;;11.70;10.50;;;14.50;46.70;;;;;;5053153;28;20477;-79
2022/05/07 06:11:43;;;;;;;12.47;9.40;;;14.60;44.80;;;;;;5053171;28;20181;-79
2022/05/07 06:14:09;;;;;;;11.23;8.77;;;14.60;14.80;;;;;;5053072;28;20265;-79
2022/05/07 06:16:37;;;;;;;11.23;8.70;;;14.70;1.00;;;;;;5052725;28;20231;-79
2022/05/07 06:19:03;;;;;;;10.93;9.40;;;14.90;1.00;;;;;;5053080;28;20543;-79
2022/05/07 06:21:31;;;;;;;14.63;9.77;;;15.10;7.70;;;;;;5053197;28;20416;-78
2022/05/07 06:27:28;;;;;;;11.10;9.60;;;15.30;1.00;;;;;;5052929;28;20257;-78
2022/05/07 06:29:26;;;;;;;13.00;11.67;;;15.30;1.00;;;;;;5053188;28;20442;-79
2022/05/07 06:31:52;;;;;;;18.10;11.50;;;15.30;1.00;;;;;;5052646;28;20970;-79
2022/05/07 06:34:22;;;;;;;14.03;10.27;;;15.30;1.00;;;;;;5052930;28;20621;-79
2022/05/07 06:36:47;;;;;;;17.40;11.60;;;15.20;1.00;;;;;;5052883;28;20809;-79
2022/05/07 06:39:13;;;;;;;17.10;11.27;;;15.20;1.00;;;;;;5052853;28;20427;-79
2022/05/07 06:41:40;;;;;;;15.70;12.30;;;15.20;7.60;;;;;;5052744;28;20171;-79
2022/05/07 06:44:05;;;;;;;17.33;13.13;;;15.20;1.00;;;;;;5052606;28;20214;-79
2022/05/07 06:46:31;;;;;;;16.83;12.97;;;15.20;1.00;;;;;;5034607;28;20573;-78
2022/05/07 06:48:56;;;;;;;14.70;11.83;;;15.30;1.00;;;;;;5052567;28;20183;-79
2022/05/07 06:51:23;;;;;;;17.20;13.63;;;15.40;1.00;;;;;;5052826;28;20178;-79
2022/05/07 06:53:49;;;;;;;16.37;13.53;;;15.50;1.00;;;;;;5052579;28;20190;-79
2022/05/07 06:56:15;;;;;;;18.80;12.73;;;15.80;1.00;;;;;;5052777;28;20406;-79
2022/05/07 06:58:41;;;;;;;13.73;12.27;;;16.10;1.00;;;;;;5034846;28;20175;-79
2022/05/07 07:01:07;;;;;;;15.73;10.97;;;16.10;1.00;;;;;;5052244;28;20555;-78
2022/05/07 07:03:33;;;;;;;16.60;11.47;;;16.30;1.00;;;;;;5052566;28;20885;-80
2022/05/07 07:05:59;;;;;;;15.93;12.70;;;16.50;99.90;;;;;;5034759;28;20179;-79
2022/05/07 07:08:25;;;;;;;12.43;10.93;;;16.80;1.00;;;;;;5050816;28;20180;-83
2022/05/07 07:10:50;;;;;;;14.93;11.40;;;17.00;1.00;;;;;;5063625;28;20430;-84
2022/05/07 07:13:16;;;;;;;13.20;10.40;;;17.20;99.90;;;;;;5051234;28;20627;-83
2022/05/07 07:15:43;;;;;;;10.50;8.57;;;17.40;24.40;;;;;;5050892;28;20169;-84
2022/05/07 07:18:12;;;;;;;14.40;11.93;;;17.80;1.00;;;;;;5033295;28;20182;-83
2022/05/07 07:20:42;;;;;;;13.40;11.50;;;18.10;99.90;;;;;;5051061;28;20452;-84
2022/05/07 07:23:12;;;;;;;15.60;12.07;;;18.10;1.00;;;;;;5051033;28;20502;-83
2022/05/07 07:25:39;;;;;;;14.63;11.93;;;17.90;99.90;;;;;;5050958;28;20466;-85
2022/05/07 07:28:05;;;;;;;15.30;12.90;;;17.90;1.00;;;;;;5050858;28;20884;-87
2022/05/07 07:30:31;;;;;;;13.33;11.50;;;18.50;49.10;;;;;;5050559;28;20431;-84
2022/05/07 07:32:57;;;;;;;15.73;12.07;;;20.30;99.90;;;;;;5051062;28;20455;-86
2022/05/07 07:35:32;;;;;;;15.33;12.13;;;21.60;99.90;;;;;;5051085;28;20177;-85
2022/05/07 07:37:57;;;;;;;13.73;10.53;;;22.00;99.90;;;;;;5050977;28;20172;-85
2022/05/07 07:40:23;;;;;;;11.93;9.70;;;22.40;99.90;;;;;;5050969;28;20488;-85
2022/05/07 07:42:48;;;;;;;7.80;6.10;;;23.20;99.90;;;;;;5054699;28;20221;-85
2022/05/07 07:48:05;;;;;;;6.63;3.53;;;24.20;31.80;;;;;;5034514;28;20177;-86
2022/05/07 07:50:36;;;;;;;3.53;2.80;;;23.60;13.60;;;;;;5034646;28;20775;-83
2022/05/07 07:53:04;;;;;;;3.53;2.70;;;23.50;14.50;;;;;;5049874;28;20417;-85
2022/05/07 07:55:30;;;;;;;4.60;3.00;;;24.80;12.60;;;;;;5035135;28;20413;-80
2022/05/07 07:57:58;;;;;;;4.57;3.60;;;24.30;2.50;;;;;;5035465;28;20409;-79
2022/05/07 08:00:25;;;;;;;3.33;3.03;;;23.50;1.00;;;;;;5034722;28;20412;-80
2022/05/07 08:02:54;;;;;;;4.20;3.00;;;21.80;1.00;;;;;;5035386;28;20428;-80
2022/05/07 08:05:21;;;;;;;5.57;1.90;;;20.50;5.40;;;;;;5035157;28;20567;-81
2022/05/07 08:13:20;;;;;;;6.53;2.20;;;19.60;78.20;;;;;;5035387;28;20752;-78
2022/05/07 08:15:45;;;;;;;3.53;2.03;;;19.50;88.40;;;;;;5034865;28;20443;-79
2022/05/07 08:18:15;;;;;;;4.70;2.83;;;19.70;78.90;;;;;;5035168;28;20877;-79
2022/05/07 08:20:41;;;;;;;2.73;2.47;;;19.80;68.70;;;;;;5035147;28;20538;-79
2022/05/07 08:23:08;;;;;;;3.30;2.30;;;20.00;59.00;;;;;;5035125;28;20556;-79
2022/05/07 08:25:34;;;;;;;4.03;2.83;;;20.00;49.40;;;;;;5035125;28;20847;-80
2022/05/07 08:28:00;;;;;;;2.50;2.00;;;20.30;57.70;;;;;;5050451;28;20935;-79
2022/05/07 08:30:25;;;;;;;6.00;2.20;;;20.30;50.30;;;;;;5034366;28;20424;-79
2022/05/07 08:32:51;;;;;;;4.03;2.53;;;21.00;47.90;;;;;;5034489;28;20180;-78
2022/05/07 08:35:18;;;;;;;4.20;2.50;;;21.00;32.00;;;;;;5034795;28;20190;-78
2022/05/07 08:37:44;;;;;;;4.90;2.67;;;20.80;36.00;;;;;;5033349;28;20491;-78
2022/05/07 08:40:13;;;;;;;3.60;2.30;;;20.60;35.00;;;;;;5033627;28;21126;-78
2022/05/07 08:42:39;;;;;;;3.57;2.30;;;20.90;33.80;;;;;;5032986;28;20425;-78
2022/05/07 08:45:05;;;;;;;3.33;2.63;;;21.00;30.90;;;;;;5041274;28;20471;-77
2022/05/07 08:47:31;;;;;;;5.90;2.60;;;22.00;35.10;;;;;;5034865;28;20265;-78
2022/05/07 08:49:57;;;;;;;5.13;2.90;;;21.90;24.60;;;;;;5054444;28;20506;-78
2022/05/07 08:52:23;;;;;;;3.80;2.00;;;20.80;21.40;;;;;;5053094;28;20442;-78
2022/05/07 08:54:49;;;;;;;3.33;1.97;;;20.60;46.80;;;;;;5051818;28;20786;-79
2022/05/07 08:57:15;;;;;;;4.20;2.23;;;20.50;43.60;;;;;;5053789;28;20414;-78
2022/05/07 08:59:43;;;;;;;4.10;2.60;;;20.20;44.60;;;;;;5054142;28;20260;-78
2022/05/07 09:02:09;;;;;;;6.00;2.53;;;20.00;47.00;;;;;;5054457;28;20408;-79
2022/05/07 09:04:36;;;;;;;3.13;2.40;;;19.70;51.50;;;;;;5054067;28;20524;-78
2022/05/07 09:07:03;;;;;;;3.10;2.10;;;19.90;83.00;;;;;;5039179;28;20431;-79
2022/05/07 09:09:31;;;;;;;7.40;2.40;;;20.00;68.90;;;;;;5064587;28;20430;-79
2022/05/07 09:11:58;;;;;;;4.60;2.70;;;20.10;73.00;;;;;;5052847;28;20784;-78
2022/05/07 09:14:30;;;;;;;3.40;1.93;;;20.00;55.50;;;;;;5050400;28;20438;-78
2022/05/07 09:17:01;;;;;;;3.30;1.93;;;20.00;64.60;;;;;;5052527;28;20483;-78
2022/05/07 09:19:29;;;;;;;4.00;2.23;;;19.80;53.30;;;;;;5052543;28;20456;-78
2022/05/07 09:22:07;;;;;;;2.27;1.03;;;20.20;60.50;;;;;;5052722;28;20948;-78
2022/05/07 09:24:34;;;;;;;4.10;2.33;;;20.30;68.00;;;;;;5051596;28;20585;-78
2022/05/07 09:27:00;;;;;;;3.03;1.40;;;20.40;46.30;;;;;;5052561;28;20467;-78
2022/05/07 09:29:29;;;;;;;4.00;1.87;;;20.50;51.50;;;;;;5052126;28;20508;-79
2022/05/07 09:32:13;;;;;;;6.50;2.33;;;20.40;42.20;;;;;;5052428;28;20517;-78
2022/05/07 09:37:39;;;;;;;3.83;2.17;;;20.20;52.40;;;;;;5051664;28;20415;-79
2022/05/07 09:40:12;;;;;;;3.40;1.53;;;20.20;51.20;;;;;;5033025;28;20937;-79
2022/05/07 09:42:41;;;;;;;2.47;0.90;;;20.20;45.20;;;;;;5035817;28;20419;-78
2022/05/07 09:45:07;;;;;;;3.60;1.70;;;20.20;41.90;;;;;;5053050;28;20485;-78
2022/05/07 09:47:33;;;;;;;6.40;1.60;;;20.40;43.80;;;;;;5053633;28;20977;-78
2022/05/07 09:58:15;;;;;;;2.20;1.03;;;21.00;24.60;;;;;;5053670;28;21004;-80
2022/05/07 10:01:07;;;;;;;3.53;1.67;;;20.80;23.80;;;;;;5052944;28;20512;-78
2022/05/07 10:04:06;;;;;;;2.73;1.17;;;20.60;33.60;;;;;;5052105;28;20653;-79
2022/05/07 10:06:34;;;;;;;4.73;1.87;;;20.70;44.00;;;;;;5053258;28;20557;-79
2022/05/07 10:09:24;;;;;;;3.17;1.50;;;20.50;36.00;;;;;;5052034;28;20412;-78
2022/05/07 10:11:54;;;;;;;5.70;1.80;;;20.70;38.90;;;;;;5053274;28;20450;-78
2022/05/07 10:14:31;;;;;;;4.27;2.30;;;20.70;32.10;;;;;;5052801;28;20862;-78
2022/05/07 10:16:58;;;;;;;6.83;2.60;;;20.80;27.10;;;;;;5052903;28;20426;-79
2022/05/07 10:19:43;;;;;;;5.80;2.67;;;21.00;34.80;;;;;;5053077;28;20926;-78
2022/05/07 10:22:25;;;;;;;4.00;2.33;;;22.10;33.00;;;;;;5052997;28;20453;-78
2022/05/07 10:25:09;;;;;;;3.13;1.63;;;22.30;13.70;;;;;;5052907;28;20490;-79
2022/05/07 10:27:43;;;;;;;3.63;2.33;;;22.90;14.40;;;;;;5035017;28;20412;-79
2022/05/07 10:30:10;;;;;;;3.70;2.80;;;23.80;13.70;;;;;;5051594;28;20431;-79
2022/05/07 10:32:57;;;;;;;5.00;2.17;;;24.00;9.10;;;;;;5052316;28;20423;-79
2022/05/07 10:35:54;;;;;;;4.63;3.00;;;25.50;4.00;;;;;;5032788;28;20412;-79
2022/05/07 10:38:33;;;;;;;3.47;2.43;;;26.10;1.00;;;;;;5032680;28;20421;-79
2022/05/07 10:41:11;;;;;;;5.33;2.43;;;26.20;1.00;;;;;;5032720;28;20397;-79
2022/05/07 10:43:38;;;;;;;3.53;1.90;;;26.30;2.30;;;;;;5032674;28;20420;-79
2022/05/07 10:46:12;;;;;;;4.00;2.00;;;26.70;1.00;;;;;;5032040;28;20465;-80
2022/05/07 10:48:52;;;;;;;2.40;1.40;;;26.50;1.00;;;;;;5032925;28;20427;-79
2022/05/07 10:51:21;;;;;;;2.17;1.57;;;25.90;1.00;;;;;;5041855;28;20424;-78
2022/05/07 10:53:48;;;;;;;2.07;0.87;;;25.40;1.00;;;;;;5054817;28;20431;-77
2022/05/07 10:56:19;;;;;;;4.03;1.00;;;24.40;1.00;;;;;;5056530;28;20770;-79
2022/05/07 10:58:51;;;;;;;2.77;0.93;;;24.60;1.00;;;;;;5053047;28;20806;-81
2022/05/07 11:01:21;;;;;;;2.47;1.50;;;24.10;1.00;;;;;;5053757;28;20444;-79
2022/05/07 11:03:47;;;;;;;3.20;1.10;;;25.30;1.00;;;;;;5060463;28;20416;-78
2022/05/07 11:06:13;;;;;;;3.27;1.33;;;25.40;1.00;;;;;;5035470;28;20472;-79
2022/05/07 11:08:50;;;;;;;3.00;2.20;;;25.40;1.00;;;;;;5052739;28;20448;-79
2022/05/07 11:11:17;;;;;;;3.53;1.40;;;25.20;1.00;;;;;;5035201;28;20205;-78
2022/05/07 11:13:54;;;;;;;3.70;1.67;;;24.60;1.00;;;;;;5052619;28;20404;-78
2022/05/07 11:16:23;;;;;;;4.20;1.07;;;23.60;1.00;;;;;;5054177;28;20416;-81
2022/05/07 11:18:53;;;;;;;4.00;1.90;;;23.60;1.00;;;;;;5056435;28;20408;-78
2022/05/07 11:21:22;;;;;;;3.63;2.40;;;23.20;1.00;;;;;;5056506;28;20510;-78
2022/05/07 11:24:00;;;;;;;9.47;2.40;;;23.70;1.00;;;;;;5056254;28;20472;-79
2022/05/07 11:26:26;;;;;;;3.50;2.40;;;24.40;1.00;;;;;;5056543;28;20503;-79
2022/05/07 11:28:52;;;;;;;5.00;2.63;;;24.60;1.00;;;;;;5055881;28;20411;-80
2022/05/07 11:31:30;;;;;;;5.17;2.77;;;23.80;1.00;;;;;;5056234;28;20420;-82
2022/05/07 11:34:10;;;;;;;5.53;2.90;;;23.60;1.00;;;;;;5056141;28;21007;-79
2022/05/07 11:36:36;;;;;;;2.97;2.30;;;23.10;1.00;;;;;;5055986;28;20402;-78
2022/05/07 11:39:04;;;;;;;2.33;1.20;;;23.30;1.00;;;;;;5056070;28;20507;-78
2022/05/07 11:41:33;;;;;;;4.43;2.23;;;23.30;1.00;;;;;;5055945;28;20412;-79
2022/05/07 11:46:48;;;;;;;3.70;2.23;;;23.80;1.00;;;;;;5056147;28;20431;-79
2022/05/07 11:49:14;;;;;;;2.73;2.13;;;23.40;1.00;;;;;;5055854;28;20411;-78
2022/05/07 11:51:39;;;;;;;3.10;1.63;;;23.10;1.00;;;;;;5055731;28;20813;-80
2022/05/07 11:54:09;;;;;;;2.33;1.53;;;22.80;1.00;;;;;;5037922;28;20229;-78
2022/05/07 11:56:47;;;;;;;5.80;2.53;;;22.80;1.00;;;;;;5055689;28;20174;-79
2022/05/07 11:59:16;;;;;;;2.27;1.80;;;22.50;1.00;;;;;;5055379;28;20419;-79
2022/05/07 12:01:49;;;;;;;3.60;2.27;;;22.50;1.00;;;;;;5056335;28;20523;-83
2022/05/07 12:04:14;;;;;;;3.77;2.70;;;22.20;1.00;;;;;;5055650;28;20464;-79
2022/05/07 12:06:40;;;;;;;5.73;2.60;;;21.90;1.00;;;;;;5055918;28;20412;-80
2022/05/07 12:09:13;;;;;;;3.20;2.17;;;21.90;1.00;;;;;;5055744;28;20177;-80
2022/05/07 12:11:42;;;;;;;3.93;2.13;;;21.50;1.00;;;;;;5055634;28;20188;-82
2022/05/07 12:14:12;;;;;;;4.03;3.27;;;21.30;1.00;;;;;;5057254;28;20424;-79
2022/05/07 12:19:29;;;;;;;9.43;4.80;;;21.20;1.00;;;;;;5056405;28;20490;-82
2022/05/07 12:30:14;;;;;;;4.13;2.00;;;20.60;5.10;;;;;;5051916;28;20414;-80
2022/05/07 12:32:44;;;;;;;5.10;2.70;;;20.90;7.40;;;;;;5036729;28;20429;-82
2022/05/07 12:35:11;;;;;;;5.70;3.90;;;21.00;4.60;;;;;;5052173;28;20434;-81
2022/05/07 12:37:37;;;;;;;5.77;3.57;;;21.10;9.20;;;;;;5054233;28;20446;-81
2022/05/07 12:40:07;;;;;;;5.70;4.57;;;21.10;24.40;;;;;;5054299;28;20805;-78
2022/05/07 12:42:33;;;;;;;6.80;3.73;;;21.20;14.30;;;;;;5054461;28;20412;-78
2022/05/07 12:44:59;;;;;;;3.37;3.07;;;21.60;25.60;;;;;;5053784;28;20478;-79
2022/05/07 12:47:25;;;;;;;6.73;4.97;;;21.50;19.10;;;;;;5055461;28;20418;-81
2022/05/07 12:49:51;;;;;;;4.60;2.87;;;21.40;21.30;;;;;;5054695;28;20175;-81
2022/05/07 12:52:17;;;;;;;4.17;2.93;;;21.50;25.60;;;;;;5054589;28;20412;-77
2022/05/07 12:54:43;;;;;;;9.23;4.03;;;21.60;30.30;;;;;;5054091;28;20474;-79
2022/05/07 12:57:11;;;;;;;6.00;3.90;;;21.50;31.00;;;;;;5054249;28;20640;-81
2022/05/07 12:59:37;;;;;;;5.87;3.30;;;21.30;22.40;;;;;;5053760;28;20185;-80
2022/05/07 13:02:06;;;;;;;4.17;2.90;;;21.30;26.20;;;;;;5053730;28;20738;-78
2022/05/07 13:04:32;;;;;;;6.90;2.57;;;21.40;48.40;;;;;;5053673;28;20669;-78
2022/05/07 13:06:57;;;;;;;8.03;3.37;;;21.50;48.00;;;;;;5053695;28;20421;-80
2022/05/07 13:09:23;;;;;;;3.93;2.60;;;21.40;34.40;;;;;;5053823;28;20183;-79
2022/05/07 13:11:49;;;;;;;4.50;2.90;;;21.30;31.20;;;;;;5053820;28;20205;-80
2022/05/07 13:14:15;;;;;;;4.90;3.23;;;22.20;34.40;;;;;;5053170;28;20520;-78
2022/05/07 13:16:41;;;;;;;5.70;3.73;;;22.00;20.60;;;;;;5053545;28;20630;-80
2022/05/07 13:19:06;;;;;;;3.90;3.40;;;22.40;17.60;;;;;;5054116;28;20499;-80
2022/05/07 13:21:32;;;;;;;4.60;2.40;;;23.30;8.90;;;;;;5054056;28;20178;-77
2022/05/07 13:23:58;;;;;;;4.67;2.50;;;23.70;6.10;;;;;;5053868;28;20201;-80
2022/05/07 13:26:24;;;;;;;4.53;2.27;;;23.10;1.00;;;;;;5036608;28;20676;-77
2022/05/07 13:28:53;;;;;;;3.67;3.17;;;22.70;1.00;;;;;;5053677;28;20420;-83
2022/05/07 13:31:19;;;;;;;4.37;2.63;;;23.10;1.00;;;;;;5054475;28;20166;-79
2022/05/07 13:33:45;;;;;;;3.30;2.30;;;23.70;2.80;;;;;;5036057;28;20936;-79
2022/05/07 13:36:10;;;;;;;4.30;3.30;;;23.40;1.60;;;;;;5055376;28;20406;-81
2022/05/07 13:38:36;;;;;;;4.23;3.57;;;24.50;1.00;;;;;;5053050;28;20558;-80
2022/05/07 13:41:05;;;;;;;4.77;3.50;;;24.00;1.00;;;;;;5053593;28;20170;-79